Inverbervie, United Kingdom
Current Conditions -  °F | °C
As of 11:50 AM on Thursday 29 Jan 2015 (Local Time) from EGPD Reporting Station
Clear Clear  
Wind Chill: 30°   Ceiling: Unl
Heat Index: 37°   Visibility: 6mi
Dew Point: 27°   Wind: 12mph
Humidity: 65%   Direction: 290°WNW
Pressure: 28.64"   Gusts: NA
Location:  56.84°N, 2.28°W
Report Text: EGPD 291150Z 29010KT 250V310 CAVOK 03/M03 Q0970 NOSIG
Loading
Personal Weather Stations






























Interactive Weather Map New forecast layout! Learn more

10-Day Weather Forecast

Advertisements
Track Severe Weather on mobile